Time;durP1;ratioP1;P1;durP2;ratioP2;P2;SDS_P1;SDS_P2;PMS_P1;PMS_P2;Temp;Humidity;BMP_temperature;BMP_pressure;BME280_temperature;BME280_humidity;BME280_pressure;Samples;Min_cycle;Max_cycle;Signal;HPM_P1;HPM_P2
2023/11/18 00:01:58;;;;;;;64.72;29.05;;;;;;;5.91;100.00;102358.91;5261248;28;20031;-73
2023/11/18 00:04:30;;;;;;;50.55;24.98;;;;;;;5.93;100.00;102359.69;5257517;28;20020;-73
2023/11/18 00:07:01;;;;;;;52.85;26.08;;;;;;;5.93;100.00;102357.00;5261833;28;20019;-74
2023/11/18 00:09:31;;;;;;;54.97;23.30;;;;;;;5.94;100.00;102361.38;5264208;28;20032;-73
2023/11/18 00:12:03;;;;;;;57.97;26.58;;;;;;;5.94;100.00;102363.19;5264589;28;20031;-73
2023/11/18 00:14:34;;;;;;;50.28;23.98;;;;;;;5.93;100.00;102356.16;5265254;28;20041;-73
2023/11/18 00:17:04;;;;;;;55.03;25.60;;;;;;;5.95;100.00;102351.56;5265026;28;20024;-73
2023/11/18 00:19:36;;;;;;;56.20;26.67;;;;;;;6.02;100.00;102349.34;5267269;28;20456;-73
2023/11/18 00:22:06;;;;;;;70.80;27.55;;;;;;;6.08;100.00;102341.84;5264960;28;20115;-73
2023/11/18 00:24:37;;;;;;;57.20;26.33;;;;;;;6.15;100.00;102344.94;5253991;28;20057;-72
2023/11/18 00:27:08;;;;;;;56.75;28.60;;;;;;;6.17;100.00;102348.34;5254644;28;20337;-72
2023/11/18 00:29:38;;;;;;;60.20;28.05;;;;;;;6.21;100.00;102339.19;5262746;28;20039;-72
2023/11/18 00:32:09;;;;;;;63.97;28.25;;;;;;;6.25;100.00;102337.19;5262756;28;20103;-72
2023/11/18 00:34:40;;;;;;;61.88;28.17;;;;;;;6.27;100.00;102338.78;5264533;28;20030;-72
2023/11/18 00:37:10;;;;;;;62.28;29.20;;;;;;;6.30;100.00;102338.59;5262350;28;20020;-72
2023/11/18 00:39:41;;;;;;;66.72;29.20;;;;;;;6.32;100.00;102339.34;5256722;28;20035;-72
2023/11/18 00:42:11;;;;;;;60.22;28.10;;;;;;;6.35;100.00;102346.28;5260233;28;20020;-72
2023/11/18 00:44:42;;;;;;;59.50;29.05;;;;;;;6.36;100.00;102335.50;5264609;28;20047;-72
2023/11/18 00:47:12;;;;;;;64.28;27.58;;;;;;;6.37;100.00;102331.03;5264124;28;20012;-72
2023/11/18 00:49:43;;;;;;;62.67;26.85;;;;;;;6.34;100.00;102334.78;5266150;28;20048;-72
2023/11/18 00:52:13;;;;;;;63.17;27.67;;;;;;;6.36;100.00;102332.84;5261865;28;20041;-72
2023/11/18 00:54:44;;;;;;;59.00;27.77;;;;;;;6.37;100.00;102337.22;5264144;28;20012;-72
2023/11/18 00:57:14;;;;;;;66.05;27.65;;;;;;;6.39;100.00;102342.47;5266072;28;20016;-72
2023/11/18 00:59:45;;;;;;;62.28;27.45;;;;;;;6.40;100.00;102345.03;5265559;28;20015;-72
2023/11/18 01:02:16;;;;;;;63.85;29.00;;;;;;;6.39;100.00;102343.31;5269005;28;20031;-72
2023/11/18 01:04:46;;;;;;;64.28;28.42;;;;;;;6.39;100.00;102353.97;5264626;28;20063;-72
2023/11/18 01:07:17;;;;;;;60.33;27.27;;;;;;;6.40;100.00;102360.16;5270566;28;20490;-72
2023/11/18 01:09:48;;;;;;;64.88;27.85;;;;;;;6.39;100.00;102353.13;5259219;28;20405;-72
2023/11/18 01:12:20;;;;;;;59.50;26.02;;;;;;;6.44;100.00;102351.88;5263913;28;20034;-72
2023/11/18 01:14:50;;;;;;;56.85;28.65;;;;;;;6.49;100.00;102365.75;5263913;28;20028;-72
2023/11/18 01:17:22;;;;;;;61.75;27.00;;;;;;;6.52;100.00;102350.47;5265311;28;20054;-72
2023/11/18 01:19:52;;;;;;;63.67;27.40;;;;;;;6.52;100.00;102345.16;5265964;28;20028;-72
2023/11/18 01:22:23;;;;;;;53.88;26.20;;;;;;;6.55;100.00;102344.94;5262063;28;20039;-72
2023/11/18 01:24:54;;;;;;;54.63;26.13;;;;;;;6.55;100.00;102343.13;5266647;28;20051;-72
2023/11/18 01:27:24;;;;;;;56.35;24.67;;;;;;;6.55;100.00;102344.94;5267797;28;20103;-72
2023/11/18 01:29:55;;;;;;;63.33;26.77;;;;;;;6.57;100.00;102340.34;5263095;28;20035;-72
2023/11/18 01:32:25;;;;;;;54.45;25.45;;;;;;;6.54;100.00;102345.91;5265440;28;20134;-72
2023/11/18 01:34:56;;;;;;;57.85;25.67;;;;;;;6.52;100.00;102347.81;5263765;28;20496;-72
2023/11/18 01:37:27;;;;;;;59.13;26.83;;;;;;;6.50;100.00;102347.94;5263291;28;20023;-72
2023/11/18 01:39:57;;;;;;;52.22;24.65;;;;;;;6.51;100.00;102351.44;5256933;28;20057;-72
2023/11/18 01:42:28;;;;;;;58.78;25.67;;;;;;;6.51;100.00;102349.63;5260496;28;20107;-72
2023/11/18 01:44:59;;;;;;;57.15;26.48;;;;;;;6.52;100.00;102345.16;5263269;28;20111;-72
2023/11/18 01:47:33;;;;;;;51.97;23.95;;;;;;;6.52;100.00;102348.66;5263300;28;20012;-72
2023/11/18 01:50:06;;;;;;;68.40;25.75;;;;;;;6.51;100.00;102348.78;5260061;28;20045;-72
2023/11/18 01:52:37;;;;;;;62.67;25.63;;;;;;;6.51;100.00;102344.28;5263423;28;20030;-73
2023/11/18 01:55:08;;;;;;;59.17;25.65;;;;;;;6.50;100.00;102347.94;5263101;28;20024;-73
2023/11/18 01:57:43;;;;;;;47.42;23.55;;;;;;;6.46;100.00;102341.94;5263356;28;20104;-73
2023/11/18 02:00:17;;;;;;;52.20;24.02;;;;;;;6.43;100.00;102349.31;5265421;28;20023;-72
2023/11/18 02:02:47;;;;;;;54.85;25.23;;;;;;;6.43;100.00;102342.16;5264302;28;20085;-72
2023/11/18 02:05:18;;;;;;;51.08;24.02;;;;;;;6.42;100.00;102348.44;5263259;28;20137;-72
2023/11/18 02:07:48;;;;;;;56.67;25.48;;;;;;;6.40;100.00;102342.34;5260999;28;20012;-72
2023/11/18 02:10:19;;;;;;;57.58;24.58;;;;;;;6.41;100.00;102345.88;5260221;28;20140;-72
2023/11/18 02:12:57;;;;;;;49.92;24.38;;;;;;;6.38;100.00;102340.75;5261280;28;20036;-72
2023/11/18 02:15:31;;;;;;;52.78;24.02;;;;;;;6.36;100.00;102342.66;5263160;28;20016;-72
2023/11/18 02:18:05;;;;;;;58.03;24.20;;;;;;;6.34;100.00;102350.78;5255431;28;20021;-72
2023/11/18 02:20:39;;;;;;;53.13;23.35;;;;;;;6.31;100.00;102345.63;5255613;28;20123;-72
2023/11/18 02:23:10;;;;;;;56.72;25.25;;;;;;;6.29;100.00;102344.88;5265251;28;20024;-72
2023/11/18 02:25:45;;;;;;;52.40;24.20;;;;;;;6.25;100.00;102348.72;5265835;28;20043;-72
2023/11/18 02:28:25;;;;;;;52.58;25.30;;;;;;;6.28;100.00;102340.53;5266809;28;20019;-72
2023/11/18 02:31:15;;;;;;;55.15;25.92;;;;;;;6.32;100.00;102342.00;5265884;28;20028;-73
2023/11/18 02:33:59;;;;;;;47.47;24.08;;;;;;;6.34;100.00;102350.78;5265146;28;20024;-72
2023/11/18 02:36:36;;;;;;;61.13;24.30;;;;;;;6.33;100.00;102338.41;5266075;28;20486;-72
2023/11/18 02:39:17;;;;;;;51.20;23.42;;;;;;;6.33;100.00;102338.41;5261678;28;20040;-72
2023/11/18 02:41:52;;;;;;;56.53;25.40;;;;;;;6.34;100.00;102332.13;5271298;28;20103;-73
2023/11/18 02:44:25;;;;;;;53.60;22.90;;;;;;;6.33;100.00;102326.91;5266589;28;20035;-72
2023/11/18 02:46:56;;;;;;;45.92;21.88;;;;;;;6.33;100.00;102329.56;5271325;28;20107;-72
2023/11/18 02:49:27;;;;;;;45.45;21.80;;;;;;;6.28;100.00;102323.69;5264543;28;20156;-72
2023/11/18 02:51:58;;;;;;;43.97;22.42;;;;;;;6.26;100.00;102320.25;5269095;28;20362;-72
2023/11/18 02:54:29;;;;;;;44.78;23.45;;;;;;;6.27;100.00;102306.81;5267449;28;20020;-72
2023/11/18 02:57:00;;;;;;;52.60;22.95;;;;;;;6.25;100.00;102292.75;5267765;28;20443;-72
2023/11/18 02:59:30;;;;;;;58.92;26.25;;;;;;;6.24;100.00;102280.38;5269334;28;20023;-72
2023/11/18 03:02:01;;;;;;;52.63;24.05;;;;;;;6.22;100.00;102275.16;5267636;28;20035;-72
2023/11/18 03:04:33;;;;;;;54.22;24.58;;;;;;;6.19;100.00;102272.69;5266035;28;20381;-72
2023/11/18 03:07:06;;;;;;;57.72;23.77;;;;;;;6.19;100.00;102282.50;5265445;28;20127;-73
2023/11/18 03:09:39;;;;;;;55.55;23.88;;;;;;;6.22;100.00;102275.16;5264265;28;20086;-73
2023/11/18 03:12:11;;;;;;;67.82;25.70;;;;;;;6.24;100.00;102269.72;5269908;28;20366;-72
2023/11/18 03:14:50;;;;;;;53.47;25.08;;;;;;;6.26;100.00;102266.94;5267164;28;20059;-72
2023/11/18 03:17:20;;;;;;;56.72;26.55;;;;;;;6.26;100.00;102273.13;5269214;28;20392;-72
2023/11/18 03:19:51;;;;;;;55.92;26.35;;;;;;;6.28;100.00;102275.72;5267450;28;20032;-73
2023/11/18 03:22:22;;;;;;;59.58;27.00;;;;;;;6.30;100.00;102284.44;5265658;28;20620;-72
2023/11/18 03:24:53;;;;;;;61.58;25.48;;;;;;;6.29;100.00;102272.94;5267968;28;20024;-72
2023/11/18 03:27:24;;;;;;;58.75;24.95;;;;;;;6.27;100.00;102264.16;5259987;28;20035;-72
2023/11/18 03:29:54;;;;;;;58.72;23.55;;;;;;;6.27;100.00;102258.84;5266866;28;20065;-73
2023/11/18 03:32:25;;;;;;;59.35;24.60;;;;;;;6.27;100.00;102263.31;5261899;28;20019;-72
2023/11/18 03:34:59;;;;;;;56.03;24.90;;;;;;;6.25;100.00;102266.09;5264619;28;20024;-72
2023/11/18 03:37:31;;;;;;;50.17;24.10;;;;;;;6.25;100.00;102268.75;5263430;28;20012;-72
2023/11/18 03:40:01;;;;;;;57.03;24.85;;;;;;;6.26;100.00;102266.94;5266162;28;20051;-72
2023/11/18 03:42:32;;;;;;;57.50;25.40;;;;;;;6.29;100.00;102259.59;5267650;28;20019;-72
2023/11/18 03:45:04;;;;;;;59.25;23.83;;;;;;;6.32;100.00;102256.72;5265245;28;20020;-72
2023/11/18 03:47:35;;;;;;;54.50;23.20;;;;;;;6.37;100.00;102253.72;5261371;28;20026;-72
2023/11/18 03:50:08;;;;;;;54.50;23.70;;;;;;;6.42;100.00;102251.59;5263701;28;20020;-72
2023/11/18 03:52:39;;;;;;;51.80;22.42;;;;;;;6.45;100.00;102262.91;5260221;28;22018;-72
2023/11/18 03:55:09;;;;;;;48.28;21.58;;;;;;;6.49;100.00;102252.91;5266361;28;20020;-72
2023/11/18 03:57:40;;;;;;;54.42;23.35;;;;;;;6.54;100.00;102247.25;5265983;28;20020;-72
2023/11/18 04:00:11;;;;;;;53.83;21.60;;;;;;;6.55;100.00;102240.97;5264723;28;20073;-72
2023/11/18 04:02:41;;;;;;;48.53;20.50;;;;;;;6.55;100.00;102236.47;5266334;28;20486;-72
2023/11/18 04:05:13;;;;;;;47.33;20.02;;;;;;;6.59;100.00;102240.66;5266468;28;20106;-72
2023/11/18 04:07:43;;;;;;;47.08;19.67;;;;;;;6.63;100.00;102228.81;5266150;28;20513;-72
2023/11/18 04:10:15;;;;;;;49.33;19.10;;;;;;;6.65;100.00;102218.88;5263437;28;20020;-72
2023/11/18 04:12:48;;;;;;;48.70;19.13;;;;;;;6.68;100.00;102208.00;5263631;28;20498;-72
2023/11/18 04:15:18;;;;;;;45.10;17.85;;;;;;;6.72;100.00;102208.63;5267530;28;20032;-72
2023/11/18 04:17:48;;;;;;;39.63;18.55;;;;;;;6.78;100.00;102215.34;5263287;28;20028;-72
2023/11/18 04:20:19;;;;;;;41.60;17.48;;;;;;;6.77;100.00;102210.97;5265021;28;20415;-72
2023/11/18 04:22:50;;;;;;;36.50;15.80;;;;;;;6.78;100.00;102210.88;5264121;28;20031;-72
2023/11/18 04:25:21;;;;;;;44.72;15.60;;;;;;;6.86;100.00;102202.31;5266922;28;20024;-72
2023/11/18 04:27:51;;;;;;;36.97;14.52;;;;;;;6.89;100.00;102194.13;5259498;28;20042;-72
2023/11/18 04:30:22;;;;;;;45.95;14.63;;;;;;;6.86;100.00;102200.50;5263367;28;20027;-72
2023/11/18 04:32:52;;;;;;;37.95;15.35;;;;;;;6.92;100.00;102191.22;5265829;28;20024;-74
2023/11/18 04:35:24;;;;;;;39.97;14.50;;;;;;;6.97;100.00;102192.59;5265494;28;20040;-72
2023/11/18 04:37:55;;;;;;;31.52;13.85;;;;;;;6.98;100.00;102196.97;5265845;28;20024;-72
2023/11/18 04:40:25;;;;;;;28.73;13.70;;;;;;;7.00;100.00;102188.84;5260468;28;20029;-72
2023/11/18 04:42:56;;;;;;;35.35;12.45;;;;;;;7.00;100.00;102186.19;5264565;28;20077;-72
2023/11/18 04:45:26;;;;;;;33.50;13.05;;;;;;;7.00;100.00;102175.50;5262860;28;20028;-72
2023/11/18 04:47:56;;;;;;;27.38;11.07;;;;;;;7.08;100.00;102175.81;5261436;28;20592;-72
2023/11/18 04:50:28;;;;;;;35.72;11.70;;;;;;;7.13;100.00;102178.13;5263262;28;20050;-72
2023/11/18 04:52:59;;;;;;;30.33;11.85;;;;;;;7.17;100.00;102176.94;5264471;28;20097;-72
2023/11/18 04:55:29;;;;;;;32.55;11.15;;;;;;;7.18;100.00;102176.00;5262933;28;20450;-72
2023/11/18 04:58:00;;;;;;;36.80;11.73;;;;;;;7.19;100.00;102173.22;5260506;28;20386;-72
2023/11/18 05:00:32;;;;;;;31.27;10.35;;;;;;;7.22;100.00;102172.13;5264500;28;20030;-72
2023/11/18 05:03:03;;;;;;;25.75;10.85;;;;;;;7.22;100.00;102161.44;5263489;28;20418;-73
2023/11/18 05:05:34;;;;;;;22.77;10.07;;;;;;;7.19;100.00;102156.34;5264147;28;20020;-72
2023/11/18 05:08:06;;;;;;;23.23;9.23;;;;;;;7.24;100.00;102148.88;5263776;28;20034;-72
2023/11/18 05:10:38;;;;;;;28.10;10.05;;;;;;;7.24;100.00;102143.53;5263177;28;20020;-72
2023/11/18 05:13:08;;;;;;;24.67;9.27;;;;;;;7.25;100.00;102135.41;5265003;28;20385;-73
2023/11/18 05:15:39;;;;;;;21.80;8.65;;;;;;;7.32;100.00;102142.94;5262295;28;20067;-72
2023/11/18 05:18:11;;;;;;;29.98;8.55;;;;;;;7.32;100.00;102133.13;5260799;28;20016;-72
2023/11/18 05:20:43;;;;;;;28.15;8.85;;;;;;;7.33;100.00;102137.50;5255723;28;20032;-73
2023/11/18 05:23:13;;;;;;;21.05;8.80;;;;;;;7.37;100.00;102128.28;5263953;28;20095;-72
2023/11/18 05:25:44;;;;;;;20.88;7.68;;;;;;;7.38;100.00;102127.34;5261577;28;20473;-73
2023/11/18 05:28:15;;;;;;;22.25;7.88;;;;;;;7.35;100.00;102116.03;5261778;28;20035;-72
2023/11/18 05:30:46;;;;;;;22.77;6.93;;;;;;;7.36;100.00;102107.06;5264233;28;20027;-73
2023/11/18 05:33:17;;;;;;;27.80;7.13;;;;;;;7.42;100.00;102106.59;5263609;28;20043;-72
2023/11/18 05:35:49;;;;;;;28.77;8.18;;;;;;;7.45;100.00;102101.88;5263983;28;20099;-72
2023/11/18 05:38:21;;;;;;;17.55;6.20;;;;;;;7.43;100.00;102097.59;5260569;28;20039;-72
2023/11/18 05:41:00;;;;;;;20.15;7.20;;;;;;;7.47;100.00;102107.09;5263943;28;20024;-72
2023/11/18 05:43:40;;;;;;;19.40;7.10;;;;;;;7.50;100.00;102112.22;5261879;28;20054;-72
2023/11/18 05:46:16;;;;;;;24.13;6.72;;;;;;;7.46;100.00;102111.59;5263906;28;20016;-73
2023/11/18 05:48:48;;;;;;;22.98;7.13;;;;;;;7.54;100.00;102113.69;5261531;28;20016;-72
2023/11/18 05:51:21;;;;;;;18.48;6.55;;;;;;;7.60;100.00;102107.88;5264365;28;20028;-73
2023/11/18 05:53:52;;;;;;;17.35;5.70;;;;;;;7.62;100.00;102097.06;5261145;28;20525;-72
2023/11/18 05:56:24;;;;;;;20.17;8.07;;;;;;;7.60;100.00;102101.69;5263311;28;20400;-72
2023/11/18 05:58:54;;;;;;;16.75;6.00;;;;;;;7.58;100.00;102090.25;5263015;28;20103;-72
2023/11/18 06:01:27;;;;;;;17.50;5.85;;;;;;;7.53;100.00;102075.44;5261629;28;20054;-72
2023/11/18 06:03:57;;;;;;;24.92;5.93;;;;;;;7.50;100.00;102064.16;5263924;28;20032;-73
2023/11/18 06:06:28;;;;;;;20.40;5.78;;;;;;;7.49;100.00;102059.78;5262886;28;20024;-73
2023/11/18 06:09:04;;;;;;;20.88;5.60;;;;;;;7.56;100.00;102078.84;5260248;28;20022;-73
2023/11/18 06:11:35;;;;;;;12.20;5.03;;;;;;;7.56;100.00;102081.50;5261834;28;20063;-73
2023/11/18 06:14:08;;;;;;;17.35;5.03;;;;;;;7.59;100.00;102081.28;5266192;28;20458;-73
2023/11/18 06:16:39;;;;;;;22.55;5.13;;;;;;;7.61;100.00;102074.00;5266904;28;20039;-72
2023/11/18 06:19:10;;;;;;;18.95;5.13;;;;;;;7.65;100.00;102078.16;5267254;28;20024;-73
2023/11/18 06:21:41;;;;;;;18.42;5.03;;;;;;;7.66;100.00;102080.69;5268165;28;20032;-73
2023/11/18 06:24:13;;;;;;;13.80;5.32;;;;;;;7.71;100.00;102078.53;5261701;28;20019;-72
2023/11/18 06:26:44;;;;;;;21.80;4.93;;;;;;;7.71;100.00;102067.00;5260341;28;20016;-73
2023/11/18 06:29:15;;;;;;;12.70;4.40;;;;;;;7.73;100.00;102075.72;5264576;28;20081;-73
2023/11/18 06:31:46;;;;;;;16.77;5.43;;;;;;;7.79;100.00;102084.13;5266964;28;20027;-73
2023/11/18 06:34:18;;;;;;;14.57;4.63;;;;;;;7.83;100.00;102078.53;5266038;28;20317;-73
2023/11/18 06:36:48;;;;;;;19.08;4.82;;;;;;;7.83;100.00;102078.53;5262188;28;20020;-73
2023/11/18 06:39:25;;;;;;;27.55;5.35;;;;;;;7.88;100.00;102066.56;5264031;28;20032;-73
2023/11/18 06:41:58;;;;;;;13.25;4.53;;;;;;;7.79;100.00;102054.75;5260968;28;20024;-73
2023/11/18 06:44:28;;;;;;;20.40;4.35;;;;;;;7.88;100.00;102060.34;5265358;28;20024;-72
2023/11/18 06:47:01;;;;;;;15.75;4.00;;;;;;;7.86;100.00;102060.47;5265910;28;20024;-72
2023/11/18 06:49:34;;;;;;;13.43;4.28;;;;;;;7.88;100.00;102050.53;5265000;28;20031;-73
2023/11/18 06:52:05;;;;;;;13.82;3.88;;;;;;;7.98;100.00;102061.31;5265539;28;20028;-72
2023/11/18 06:54:35;;;;;;;10.70;3.30;;;;;;;8.02;100.00;102055.63;5265250;28;20035;-73
2023/11/18 06:57:07;;;;;;;12.75;3.30;;;;;;;8.05;100.00;102060.72;5257505;28;20111;-73
2023/11/18 06:59:38;;;;;;;17.70;3.67;;;;;;;8.05;100.00;102068.75;5257480;28;20047;-73
2023/11/18 07:02:10;;;;;;;13.13;3.72;;;;;;;8.00;100.00;102067.41;5246570;28;20162;-73
2023/11/18 07:04:40;;;;;;;11.13;2.90;;;;;;;8.08;100.00;102064.13;5247941;28;20051;-73
2023/11/18 07:07:12;;;;;;;13.63;3.72;;;;;;;8.10;100.00;102067.53;5247080;28;20363;-72
2023/11/18 07:09:44;;;;;;;9.18;3.17;;;;;;;8.15;100.00;102070.72;5264354;28;20024;-73
2023/11/18 07:12:14;;;;;;;13.05;3.90;;;;;;;8.17;100.00;102064.25;5255715;28;20497;-73
2023/11/18 07:14:48;;;;;;;13.77;3.03;;;;;;;8.19;100.00;102056.13;5246219;28;20025;-73
2023/11/18 07:17:18;;;;;;;11.80;3.83;;;;;;;8.20;100.00;102052.47;5256954;28;20198;-74
2023/11/18 07:19:49;;;;;;;12.43;3.55;;;;;;;8.20;100.00;102053.31;5259934;28;20477;-73
2023/11/18 07:22:19;;;;;;;11.15;3.65;;;;;;;8.17;100.00;102052.72;5257571;28;20024;-73
2023/11/18 07:24:50;;;;;;;12.73;3.70;;;;;;;8.18;100.00;102057.06;5258152;28;20041;-73
2023/11/18 07:27:20;;;;;;;11.25;3.30;;;;;;;8.24;100.00;102062.81;5270909;28;20024;-73
2023/11/18 07:29:52;;;;;;;8.45;3.28;;;;;;;8.30;100.00;102058.81;5270611;28;20031;-73
2023/11/18 07:32:24;;;;;;;9.00;3.03;;;;;;;8.31;100.00;102063.16;5260728;28;20066;-73
2023/11/18 07:34:55;;;;;;;26.02;3.22;;;;;;;8.24;100.00;102057.47;5245809;28;20056;-73
2023/11/18 07:37:26;;;;;;;12.90;4.72;;;;;;;8.32;100.00;102043.47;5262227;28;20518;-73
2023/11/18 07:40:00;;;;;;;13.95;3.33;;;;;;;8.30;100.00;102051.63;5258399;28;20039;-73
2023/11/18 07:42:35;;;;;;;14.32;3.05;;;;;;;8.38;100.00;102045.69;5259113;28;20110;-73
2023/11/18 07:45:17;;;;;;;12.60;3.95;;;;;;;8.37;100.00;102035.13;5252910;28;20029;-73
2023/11/18 07:47:47;;;;;;;18.75;3.47;;;;;;;8.39;100.00;102044.72;5249105;28;20020;-73
2023/11/18 07:50:19;;;;;;;12.32;3.00;;;;;;;8.41;100.00;102041.94;5253175;28;20077;-73
2023/11/18 07:52:50;;;;;;;18.52;3.20;;;;;;;8.45;100.00;102046.06;5258751;28;20047;-73
2023/11/18 07:55:23;;;;;;;10.38;3.15;;;;;;;8.43;100.00;102048.00;5260728;28;20027;-73
2023/11/18 07:57:53;;;;;;;13.70;3.03;;;;;;;8.45;100.00;102041.56;5259079;28;20024;-73
2023/11/18 08:00:24;;;;;;;8.60;2.97;;;;;;;8.52;100.00;102041.91;5259450;28;20024;-74
2023/11/18 08:02:55;;;;;;;14.07;3.28;;;;;;;8.63;100.00;102038.34;5261222;28;20102;-74
2023/11/18 08:05:26;;;;;;;12.48;3.35;;;;;;;8.68;100.00;102041.50;5265429;28;20055;-74
2023/11/18 08:07:56;;;;;;;11.88;3.85;;;;;;;8.68;100.00;102033.47;5269240;28;20024;-75
2023/11/18 08:10:28;;;;;;;12.57;3.50;;;;;;;8.62;100.00;102032.16;5264026;28;20031;-75
2023/11/18 08:12:59;;;;;;;13.63;4.22;;;;;;;8.68;100.00;102028.13;5269216;28;20020;-75
2023/11/18 08:15:31;;;;;;;16.35;3.55;;;;;;;8.73;100.00;102025.94;5266579;28;20031;-75
2023/11/18 08:18:03;;;;;;;12.25;3.97;;;;;;;8.69;100.00;102032.53;5272766;28;20024;-75
2023/11/18 08:20:34;;;;;;;16.67;4.00;;;;;;;8.65;100.00;102023.06;5269356;28;20047;-75
2023/11/18 08:23:05;;;;;;;16.10;3.70;;;;;;;8.69;100.00;102022.69;5268825;28;20024;-75
2023/11/18 08:25:35;;;;;;;15.82;3.40;;;;;;;8.66;100.00;102022.06;5268204;28;20024;-75
2023/11/18 08:28:07;;;;;;;14.23;3.95;;;;;;;8.70;100.00;102007.47;5268348;28;20019;-75
2023/11/18 08:30:39;;;;;;;13.60;4.13;;;;;;;8.75;100.00;101997.25;5267491;28;20020;-75
2023/11/18 08:33:09;;;;;;;12.98;3.97;;;;;;;8.79;100.00;101996.03;5267925;28;20479;-75
2023/11/18 08:35:42;;;;;;;13.20;3.70;;;;;;;8.86;100.00;102005.22;5262815;28;20024;-75
2023/11/18 08:38:12;;;;;;;15.73;3.97;;;;;;;8.90;100.00;102005.84;5265098;28;20047;-75
2023/11/18 08:40:43;;;;;;;18.58;4.57;;;;;;;8.88;100.00;102019.31;5270038;28;20028;-75
2023/11/18 08:43:16;;;;;;;17.90;3.70;;;;;;;9.03;100.00;102019.88;5270796;28;20042;-75
2023/11/18 08:45:47;;;;;;;18.52;4.05;;;;;;;8.93;100.00;102017.09;5271041;28;20028;-75
2023/11/18 08:48:18;;;;;;;11.82;4.35;;;;;;;8.90;100.00;102006.69;5260941;28;20082;-75
2023/11/18 08:50:48;;;;;;;17.17;4.30;;;;;;;9.06;100.00;102016.97;5266319;28;20087;-75
2023/11/18 08:53:25;;;;;;;21.27;5.47;;;;;;;9.01;100.00;102017.34;5265091;28;20477;-75
2023/11/18 08:55:56;;;;;;;14.50;4.63;;;;;;;9.01;100.00;102011.13;5274498;28;20036;-75
2023/11/18 08:58:28;;;;;;;16.13;4.43;;;;;;;8.99;100.00;102011.28;5266005;28;20032;-76
2023/11/18 09:01:12;;;;;;;12.48;4.82;;;;;;;8.98;100.00;101996.16;5267221;28;20031;-75
2023/11/18 09:03:48;;;;;;;14.52;4.07;;;;;;;9.11;100.00;102005.88;5266997;28;20047;-75
2023/11/18 09:06:18;;;;;;;;;;;;;;;9.11;100.00;101995.16;5273843;28;20034;-75
2023/11/18 09:08:52;;;;;;;13.13;4.70;;;;;;;9.15;100.00;101991.25;5265273;28;20365;-75
2023/11/18 09:11:28;;;;;;;10.00;4.18;;;;;;;9.26;100.00;101991.19;5264136;28;20149;-75
2023/11/18 09:14:00;;;;;;;14.48;4.07;;;;;;;9.16;100.00;101983.09;5262836;28;20455;-75
2023/11/18 09:16:32;;;;;;;15.27;4.75;;;;;;;9.18;100.00;101980.25;5264502;28;20056;-75
2023/11/18 09:19:05;;;;;;;17.92;4.78;;;;;;;9.10;100.00;101977.41;5272949;28;20740;-75
2023/11/18 09:21:36;;;;;;;12.43;4.88;;;;;;;9.21;100.00;101974.66;5261397;28;20072;-75
2023/11/18 09:24:11;;;;;;;15.85;5.13;;;;;;;9.12;100.00;101970.94;5271330;28;20023;-75
2023/11/18 09:26:44;;;;;;;12.20;4.45;;;;;;;9.26;100.00;101956.38;5264024;28;20099;-76
2023/11/18 09:29:17;;;;;;;17.42;5.15;;;;;;;9.20;100.00;101948.88;5262850;28;20036;-75
2023/11/18 09:31:48;;;;;;;17.42;5.20;;;;;;;9.20;100.00;101947.03;5271127;28;20120;-75
2023/11/18 09:34:26;;;;;;;20.98;5.35;;;;;;;9.17;100.00;101941.09;5266373;28;21466;-75
2023/11/18 09:36:58;;;;;;;17.48;5.05;;;;;;;9.21;100.00;101945.22;5272290;28;20472;-75
2023/11/18 09:39:29;;;;;;;21.80;5.30;;;;;;;9.31;100.00;101957.69;5275171;28;20544;-75
2023/11/18 09:42:02;;;;;;;15.30;4.82;;;;;;;9.24;100.00;101955.66;5267091;28;20098;-75
2023/11/18 09:44:33;;;;;;;20.08;5.30;;;;;;;9.32;100.00;101953.16;5268757;28;20023;-75
2023/11/18 09:47:09;;;;;;;14.27;5.10;;;;;;;9.24;100.00;101953.00;5262585;28;20030;-75
2023/11/18 09:49:45;;;;;;;14.32;5.10;;;;;;;9.32;100.00;101947.81;5270008;28;20034;-75
2023/11/18 09:52:17;;;;;;;26.20;5.65;;;;;;;9.21;100.00;101938.03;5264446;28;20422;-75
2023/11/18 09:55:14;;;;;;;11.05;4.97;;;;;;;9.22;100.00;101920.13;5267121;28;20051;-75
2023/11/18 09:57:57;;;;;;;10.85;4.70;;;;;;;9.28;100.00;101901.69;5261321;28;20063;-75
2023/11/18 10:00:32;;;;;;;16.25;5.10;;;;;;;9.37;100.00;101896.53;5264453;28;20525;-76
2023/11/18 10:03:07;;;;;;;19.08;4.93;;;;;;;9.21;100.00;101894.34;5258169;28;20043;-75
2023/11/18 10:05:40;;;;;;;13.45;4.93;;;;;;;9.27;100.00;101894.66;5271613;28;20404;-76
2023/11/18 10:08:11;;;;;;;17.58;4.50;;;;;;;9.23;100.00;101895.88;5258320;28;20021;-75
2023/11/18 10:10:45;;;;;;;15.65;4.50;;;;;;;9.33;100.00;101880.72;5258376;28;20142;-75
2023/11/18 10:13:22;;;;;;;14.63;4.55;;;;;;;9.31;100.00;101869.31;5262708;28;20031;-75
2023/11/18 10:15:52;;;;;;;13.80;5.50;;;;;;;9.29;100.00;101854.38;5256186;28;20024;-75
2023/11/18 10:18:23;;;;;;;16.90;5.53;;;;;;;9.26;100.00;101863.50;5260675;28;20030;-76
2023/11/18 10:20:53;;;;;;;19.30;5.60;;;;;;;9.33;100.00;101863.81;5257463;28;20067;-75
2023/11/18 10:23:25;;;;;;;16.52;5.45;;;;;;;9.46;100.00;101852.88;5264678;28;20020;-75
2023/11/18 10:25:56;;;;;;;16.58;4.88;;;;;;;9.36;100.00;101842.13;5262218;28;20044;-76
2023/11/18 10:28:28;;;;;;;10.75;4.93;;;;;;;9.39;100.00;101841.88;5264393;28;20633;-75
2023/11/18 10:31:04;;;;;;;12.77;5.55;;;;;;;9.41;100.00;101826.50;5264773;28;20031;-75
2023/11/18 10:33:37;;;;;;;20.00;5.47;;;;;;;9.40;100.00;101822.13;5260404;28;20031;-76
2023/11/18 10:36:23;;;;;;;18.65;5.18;;;;;;;9.41;100.00;101812.28;5264341;28;20106;-76
2023/11/18 10:39:00;;;;;;;15.27;5.47;;;;;;;9.30;100.00;101803.34;5270390;28;20024;-75
2023/11/18 10:41:30;;;;;;;13.80;5.80;;;;;;;9.28;100.00;101802.63;5268712;28;20042;-75
2023/11/18 10:44:13;;;;;;;16.63;5.45;;;;;;;9.46;100.00;101793.97;5260327;28;20016;-76
2023/11/18 10:46:53;;;;;;;14.45;5.80;;;;;;;9.37;100.00;101789.41;5255782;28;20055;-76
2023/11/18 10:49:24;;;;;;;21.45;4.80;;;;;;;9.40;100.00;101783.81;5247292;28;20508;-75
2023/11/18 10:51:56;;;;;;;12.85;5.28;;;;;;;9.28;100.00;101785.72;5256932;28;20055;-76
2023/11/18 10:54:27;;;;;;;20.02;5.18;;;;;;;9.36;100.00;101791.25;5244500;28;20452;-76
2023/11/18 10:57:07;;;;;;;15.48;5.20;;;;;;;9.34;100.00;101799.44;5262374;28;20028;-76
2023/11/18 10:59:59;;;;;;;12.65;5.25;;;;;;;9.41;100.00;101785.50;5264498;28;20024;-76
2023/11/18 11:02:35;;;;;;;14.23;5.90;;;;;;;9.45;100.00;101777.03;5258758;28;20028;-76
2023/11/18 11:05:06;;;;;;;21.85;5.55;;;;;;;9.43;100.00;101791.53;5260882;28;20032;-76
2023/11/18 11:07:37;;;;;;;16.15;5.35;;;;;;;9.36;100.00;101771.66;5259948;28;20024;-77
2023/11/18 11:10:10;;;;;;;15.00;5.40;;;;;;;9.54;100.00;101762.84;5262891;28;20028;-77
2023/11/18 11:12:51;;;;;;;13.82;5.70;;;;;;;9.44;100.00;101756.63;5263858;28;20035;-77
2023/11/18 11:15:31;;;;;;;15.32;5.38;;;;;;;9.46;100.00;101741.25;5260928;28;20016;-77
2023/11/18 11:18:09;;;;;;;13.80;5.10;;;;;;;9.35;100.00;101752.06;5253375;28;20036;-76
2023/11/18 11:20:48;;;;;;;13.77;5.65;;;;;;;9.43;100.00;101759.41;5255140;28;20038;-77
2023/11/18 11:23:27;;;;;;;14.93;5.68;;;;;;;9.45;100.00;101734.19;5258739;28;20028;-77
2023/11/18 11:26:13;;;;;;;12.85;5.63;;;;;;;9.51;100.00;101714.03;5253249;28;20390;-77
2023/11/18 11:29:07;;;;;;;14.40;5.55;;;;;;;9.44;100.00;101713.75;5255422;28;20028;-77
2023/11/18 11:31:40;;;;;;;13.77;5.28;;;;;;;9.45;100.00;101706.56;5256002;28;20115;-77
2023/11/18 11:34:20;;;;;;;15.25;6.43;;;;;;;9.49;100.00;101695.44;5262620;28;20027;-77
2023/11/18 11:36:54;;;;;;;14.38;5.97;;;;;;;9.38;100.00;101682.16;5265821;28;20028;-77
2023/11/18 11:39:30;;;;;;;9.35;4.45;;;;;;;9.50;100.00;101675.69;5256260;28;20130;-76